Time;durP1;ratioP1;P1;durP2;ratioP2;P2;SDS_P1;SDS_P2;PMS_P1;PMS_P2;Temp;Humidity;BMP_temperature;BMP_pressure;BME280_temperature;BME280_humidity;BME280_pressure;Samples;Min_cycle;Max_cycle;Signal;HPM_P1;HPM_P2
2022/09/27 00:00:15;;;;;;;;;1.00;1.00;;;;;13.85;61.75;99898.00;5067763;28;47639;-65
2022/09/27 00:02:40;;;;;;;;;0.67;0.67;;;;;14.07;61.71;99934.47;5052715;28;45475;-64
2022/09/27 00:05:06;;;;;;;;;3.33;1.33;;;;;14.11;61.55;99941.09;5039899;28;45414;-63
2022/09/27 00:07:32;;;;;;;;;3.00;2.00;;;;;14.18;61.40;99943.84;5039772;28;45602;-65
2022/09/27 00:09:58;;;;;;;;;3.67;0.67;;;;;13.98;61.12;99917.69;5039383;28;51309;-63
2022/09/27 00:12:23;;;;;;;;;2.00;2.00;;;;;14.12;61.46;99945.44;5039557;28;45241;-65
2022/09/27 00:14:48;;;;;;;;;3.00;1.67;;;;;14.01;61.48;99924.50;5039639;28;45246;-65
2022/09/27 00:17:14;;;;;;;;;1.33;1.00;;;;;14.15;61.77;99938.88;5039313;28;46257;-65
2022/09/27 00:19:39;;;;;;;;;1.33;0.67;;;;;13.99;61.99;99921.19;5039292;28;45242;-65
2022/09/27 00:22:05;;;;;;;;;2.00;1.00;;;;;14.06;62.02;99935.50;5039743;28;45439;-64
2022/09/27 00:24:30;;;;;;;;;2.33;1.00;;;;;14.04;61.94;99942.88;5039510;28;45329;-64
2022/09/27 00:26:56;;;;;;;;;0.33;0.33;;;;;13.92;62.45;99944.34;5028052;28;46415;-63
2022/09/27 00:29:21;;;;;;;;;1.67;1.67;;;;;13.70;62.71;99911.38;5039206;28;45404;-65
2022/09/27 00:31:47;;;;;;;;;1.00;1.00;;;;;13.84;62.94;99936.44;5039435;28;45197;-64
2022/09/27 00:34:22;;;;;;;;;0.67;0.67;;;;;13.84;63.10;99953.28;5039900;28;45394;-64
2022/09/27 00:36:48;;;;;;;;;5.00;4.33;;;;;13.84;63.53;99968.50;5038962;28;45846;-65
2022/09/27 00:39:15;;;;;;;;;2.67;1.67;;;;;13.91;63.19;99964.91;5038944;28;45498;-64
2022/09/27 00:41:41;;;;;;;;;2.67;2.00;;;;;13.89;63.36;99974.13;5039253;28;45379;-65
2022/09/27 00:44:28;;;;;;;;;2.00;2.00;;;;;13.98;63.67;99967.66;5039409;28;45279;-64
2022/09/27 00:47:15;;;;;;;;;1.00;1.00;;;;;14.01;64.00;99964.59;5038678;28;46240;-65
2022/09/27 00:49:48;;;;;;;;;4.67;2.00;;;;;14.02;63.56;99971.63;5038765;28;45372;-64
2022/09/27 00:52:25;;;;;;;;;2.67;1.67;;;;;13.62;63.70;99901.63;5039089;28;45349;-64
2022/09/27 00:54:57;;;;;;;;;2.00;1.33;;;;;13.92;63.59;99960.38;5036782;28;45513;-65
2022/09/27 00:57:23;;;;;;;;;3.00;1.67;;;;;13.99;63.71;99983.50;5039016;28;45790;-65
2022/09/27 00:59:59;;;;;;;;;2.33;2.33;;;;;13.98;64.17;99994.38;5038807;28;45500;-64
2022/09/27 01:02:25;;;;;;;;;4.67;3.33;;;;;13.46;64.22;99892.94;5063742;27;45481;-64
2022/09/27 01:04:50;;;;;;;;;1.00;1.00;;;;;13.70;64.31;99952.28;5059148;28;45302;-64
2022/09/27 01:07:16;;;;;;;;;2.67;2.00;;;;;13.87;64.27;99992.19;5058448;28;47324;-65
2022/09/27 01:09:42;;;;;;;;;2.00;0.67;;;;;13.65;64.22;99956.50;5074250;28;45648;-64
2022/09/27 01:12:16;;;;;;;;;1.67;1.67;;;;;13.76;64.61;99993.44;5058444;28;45440;-64
2022/09/27 01:15:18;;;;;;;;;1.67;1.67;;;;;13.77;64.66;99983.59;5074853;28;45502;-65
2022/09/27 01:18:20;;;;;;;;;5.67;4.33;;;;;13.75;64.74;99986.44;5053316;28;46060;-65
2022/09/27 01:21:13;;;;;;;;;2.00;2.00;;;;;13.74;64.78;99987.44;5058701;28;45496;-65
2022/09/27 01:24:00;;;;;;;;;2.00;2.00;;;;;13.76;64.65;99990.78;5058511;28;45426;-64
2022/09/27 01:26:50;;;;;;;;;1.33;1.33;;;;;13.75;64.47;99990.97;5074179;28;45547;-64
2022/09/27 01:29:34;;;;;;;;;5.00;3.67;;;;;13.74;64.42;99991.97;5058092;28;46548;-64
2022/09/27 01:32:26;;;;;;;;;0.67;0.67;;;;;13.61;64.58;99985.41;5058297;28;45513;-64
2022/09/27 01:35:19;;;;;;;;;2.33;2.33;;;;;13.69;64.50;99998.69;5052994;28;45586;-65
2022/09/27 01:38:10;;;;;;;;;2.67;2.33;;;;;13.55;64.40;99975.47;5058641;28;45403;-64
2022/09/27 01:40:35;;;;;;;;;1.33;1.33;;;;;13.70;64.54;99996.84;5057899;28;46520;-64
2022/09/27 01:43:19;;;;;;;;;3.67;1.67;;;;;13.66;64.77;99996.38;5058354;28;45504;-65
2022/09/27 01:45:54;;;;;;;;;2.67;2.00;;;;;13.59;64.75;99986.59;5051247;28;46210;-65
2022/09/27 01:48:22;;;;;;;;;2.00;2.00;;;;;13.59;64.59;99995.44;5058208;28;45469;-65
2022/09/27 01:51:17;;;;;;;;;1.33;1.33;;;;;13.59;64.63;99990.09;5056560;28;47527;-64
2022/09/27 01:53:46;;;;;;;;;2.00;1.00;;;;;13.51;64.58;99974.16;5047159;28;45567;-64
2022/09/27 01:56:26;;;;;;;;;1.33;1.33;;;;;13.44;64.56;99972.41;5058030;28;45449;-64
2022/09/27 01:59:09;;;;;;;;;3.67;2.00;;;;;13.57;64.55;99992.13;5051058;28;45368;-64
2022/09/27 02:01:39;;;;;;;;;1.67;1.67;;;;;13.38;64.75;99971.28;5073797;28;48300;-64
2022/09/27 02:04:10;;;;;;;;;2.67;1.00;;;;;13.47;64.89;99990.75;5058363;28;45193;-64
2022/09/27 02:06:42;;;;;;;;;1.33;1.33;;;;;13.37;64.67;99986.47;5067211;28;45283;-64
2022/09/27 02:09:20;;;;;;;;;2.00;2.00;;;;;13.50;65.02;100004.56;5078088;28;45546;-64
2022/09/27 02:11:50;;;;;;;;;2.00;2.00;;;;;13.36;64.56;99992.00;5065480;28;47872;-64
2022/09/27 02:14:21;;;;;;;;;0.33;0.33;;;;;13.42;65.25;100001.97;5058406;28;45518;-63
2022/09/27 02:16:52;;;;;;;;;3.00;2.00;;;;;13.35;65.03;99990.31;5074218;28;45635;-64
2022/09/27 02:19:44;;;;;;;;;1.33;1.00;;;;;13.33;65.30;99981.69;5066706;28;45582;-65
2022/09/27 02:22:27;;;;;;;;;2.33;2.00;;;;;13.36;65.28;99997.31;5059970;28;46618;-64
2022/09/27 02:25:11;;;;;;;;;2.00;2.00;;;;;13.39;65.32;99986.28;5057541;28;45329;-65
2022/09/27 02:27:45;;;;;;;;;3.67;2.67;;;;;13.37;64.91;99977.63;5065706;28;45506;-64
2022/09/27 02:30:13;;;;;;;;;1.33;1.33;;;;;13.37;65.54;99978.44;5059508;28;45569;-64
2022/09/27 02:32:39;;;;;;;;;2.33;1.67;;;;;13.35;65.28;99985.81;5065997;28;46830;-65
2022/09/27 02:35:14;;;;;;;;;1.33;0.67;;;;;13.35;65.27;99976.97;5068865;28;45557;-65
2022/09/27 02:37:39;;;;;;;;;3.00;1.00;;;;;13.31;65.51;99981.84;5069014;28;45305;-68
2022/09/27 02:40:05;;;;;;;;;1.33;1.33;;;;;13.12;65.32;99958.28;5066120;28;45270;-64
2022/09/27 02:42:33;;;;;;;;;1.00;1.00;;;;;13.27;65.49;99985.06;5056484;28;46507;-64
2022/09/27 02:44:59;;;;;;;;;2.00;2.00;;;;;13.23;65.63;99986.44;5075947;28;45407;-64
2022/09/27 02:47:46;;;;;;;;;1.00;1.00;;;;;13.31;65.57;99986.38;5063568;28;45356;-64
2022/09/27 02:50:47;;;;;;;;;2.00;2.00;;;;;13.18;65.84;99967.44;5049983;28;45557;-64
2022/09/27 02:53:27;;;;;;;;;2.00;1.00;;;;;12.66;66.06;99883.63;5021003;28;46464;-65
2022/09/27 02:56:25;;;;;;;;;2.00;0.00;;;;;13.21;66.06;99981.25;5064464;28;45361;-65
2022/09/27 02:59:15;;;;;;;;;2.00;1.00;;;;;13.03;66.33;99964.72;5065576;28;45473;-65
2022/09/27 03:02:17;;;;;;;;;1.00;1.00;;;;;13.02;66.78;99958.56;5046061;28;45642;-64
2022/09/27 03:04:51;;;;;;;;;2.00;1.00;;;;;12.98;66.75;99957.22;5059799;27;45631;-65
2022/09/27 03:07:17;;;;;;;;;1.00;1.00;;;;;13.23;66.80;99995.28;5067892;28;45431;-64
2022/09/27 03:09:51;;;;;;;;;0.00;0.00;;;;;13.16;67.22;99988.13;5070031;28;45590;-64
2022/09/27 03:12:27;;;;;;;;;1.00;1.00;;;;;13.09;67.03;99978.16;5068524;28;45237;-64
2022/09/27 03:14:57;;;;;;;;;3.00;2.00;;;;;12.59;67.42;99877.34;5068114;28;45721;-64
2022/09/27 03:17:23;;;;;;;;;0.67;0.67;;;;;13.25;67.43;99984.44;5063834;28;45525;-64
2022/09/27 03:19:48;;;;;;;;;3.00;1.67;;;;;13.24;66.92;99972.09;5072097;28;45497;-64
2022/09/27 03:22:14;;;;;;;;;0.67;0.67;;;;;13.30;67.05;99976.69;5058939;28;45536;-64
2022/09/27 03:24:39;;;;;;;;;4.00;0.00;;;;;13.32;67.14;99969.34;5061774;28;48358;-64
2022/09/27 03:27:05;;;;;;;;;1.00;1.00;;;;;13.36;67.02;99981.31;5064950;28;45242;-66
2022/09/27 03:29:31;;;;;;;;;1.67;1.67;;;;;13.46;67.06;100002.44;5064827;28;45334;-65
2022/09/27 03:31:57;;;;;;;;;1.00;1.00;;;;;13.47;66.99;99994.25;5056917;28;45474;-64
2022/09/27 03:34:22;;;;;;;;;1.33;1.33;;;;;13.48;68.34;99985.22;5064431;28;45471;-64
2022/09/27 03:36:48;;;;;;;;;1.00;1.00;;;;;13.59;68.25;99989.28;5060907;28;45455;-66
2022/09/27 03:39:13;;;;;;;;;3.00;3.00;;;;;13.65;68.40;100001.91;5059203;28;45543;-62
2022/09/27 03:41:39;;;;;;;;;1.00;1.00;;;;;13.65;68.44;99992.06;5068786;28;45327;-64
2022/09/27 03:44:04;;;;;;;;;3.00;3.00;;;;;13.43;68.25;99968.91;5067956;28;46223;-64
2022/09/27 03:46:29;;;;;;;;;2.00;2.00;;;;;13.60;68.02;99982.91;5073020;28;45268;-65
2022/09/27 03:48:55;;;;;;;;;1.00;1.00;;;;;13.16;68.25;99906.22;5056630;28;45378;-64
2022/09/27 03:51:20;;;;;;;;;1.67;1.67;;;;;13.67;68.58;99979.34;5056584;28;45440;-66
2022/09/27 03:53:46;;;;;;;;;1.00;1.00;;;;;13.55;68.47;99978.13;5060739;28;46502;-64
2022/09/27 03:56:12;;;;;;;;;1.00;1.00;;;;;13.62;68.52;99987.09;5041983;28;45454;-65
2022/09/27 03:58:37;;;;;;;;;3.33;1.67;;;;;13.54;68.18;99971.13;5064501;28;45594;-64
2022/09/27 04:01:02;;;;;;;;;1.00;1.00;;;;;13.44;68.64;99967.91;5068676;28;45561;-62
2022/09/27 04:03:28;;;;;;;;;1.00;1.00;;;;;13.51;68.63;99992.03;5036778;28;49849;-65
2022/09/27 04:05:54;;;;;;;;;0.00;0.00;;;;;13.22;68.69;99939.41;5035809;28;45487;-65
2022/09/27 04:08:21;;;;;;;;;1.00;1.00;;;;;13.51;68.60;99984.03;5035554;28;45357;-64
2022/09/27 04:10:46;;;;;;;;;1.00;1.00;;;;;13.44;68.93;99978.59;5035766;28;45650;-64
2022/09/27 04:13:12;;;;;;;;;0.33;0.33;;;;;12.94;68.26;99881.22;5035304;28;46349;-64
2022/09/27 04:15:38;;;;;;;;;2.00;1.00;;;;;13.42;68.87;99969.94;5035709;28;45343;-65
2022/09/27 04:18:04;;;;;;;;;2.00;2.00;;;;;13.34;68.90;99952.13;5036099;28;45463;-64
2022/09/27 04:20:29;;;;;;;;;4.67;1.00;;;;;13.34;69.18;99965.47;5040012;28;45502;-65
2022/09/27 04:22:54;;;;;;;;;6.00;6.00;;;;;13.34;68.67;99964.66;5035632;28;47255;-64
2022/09/27 04:25:20;;;;;;;;;2.00;2.00;;;;;13.25;68.91;99955.91;5038526;28;46708;-64
2022/09/27 04:27:47;;;;;;;;;1.67;1.67;;;;;13.28;69.39;99966.19;5034014;28;45470;-64
2022/09/27 04:30:14;;;;;;;;;0.67;0.00;;;;;13.27;69.22;99955.72;5035578;28;45525;-64
2022/09/27 04:32:45;;;;;;;;;1.67;1.00;;;;;13.25;68.86;99960.41;5035623;28;46743;-64
2022/09/27 04:37:55;;;;;;;;;1.33;1.33;;;;;13.25;68.93;99971.09;5035351;28;45484;-64
2022/09/27 04:40:21;;;;;;;;;1.00;1.00;;;;;13.19;68.63;99953.91;5035441;28;45416;-64
2022/09/27 04:42:47;;;;;;;;;2.00;2.00;;;;;13.28;68.90;99960.88;5035551;28;46515;-64
2022/09/27 04:45:13;;;;;;;;;1.00;1.00;;;;;12.69;68.67;99859.28;5035683;28;45649;-63
2022/09/27 04:47:43;;;;;;;;;2.33;2.00;;;;;13.33;68.29;99965.66;5037338;28;45297;-65
2022/09/27 04:50:08;;;;;;;;;5.00;3.67;;;;;13.16;68.58;99926.75;5039084;28;45384;-63
2022/09/27 04:52:34;;;;;;;;;3.33;2.33;;;;;13.36;68.25;99952.78;5038427;28;45408;-64
2022/09/27 04:54:59;;;;;;;;;3.33;2.00;;;;;13.36;68.46;99959.94;5038727;28;45247;-64
2022/09/27 04:57:24;;;;;;;;;2.33;1.00;;;;;13.34;68.40;99943.28;5038525;28;45527;-64
2022/09/27 04:59:50;;;;;;;;;1.00;1.00;;;;;13.40;68.07;99956.72;5038949;28;45516;-65
2022/09/27 05:02:15;;;;;;;;;2.33;2.00;;;;;13.31;68.53;99940.97;5049985;28;47231;-64
2022/09/27 05:04:41;;;;;;;;;4.00;1.00;;;;;13.48;68.16;99965.69;5067307;28;45502;-65
2022/09/27 05:07:06;;;;;;;;;2.00;2.00;;;;;13.50;68.42;99953.00;5066234;28;45422;-64
2022/09/27 05:09:31;;;;;;;;;2.33;1.00;;;;;13.52;68.43;99973.16;5074491;28;45341;-64
2022/09/27 05:11:57;;;;;;;;;3.00;1.33;;;;;13.53;68.41;99966.81;5060455;28;46193;-64
2022/09/27 05:14:23;;;;;;;;;2.00;2.00;;;;;13.55;68.50;99969.28;5063875;28;45500;-64
2022/09/27 05:16:49;;;;;;;;;2.00;2.00;;;;;13.52;68.33;99978.50;5069440;28;45446;-67
2022/09/27 05:19:15;;;;;;;;;3.00;1.33;;;;;13.48;68.29;99957.69;5066185;28;45534;-64
2022/09/27 05:21:42;;;;;;;;;4.00;4.00;;;;;13.63;68.57;99988.75;5058626;28;45441;-65
2022/09/27 05:24:07;;;;;;;;;2.67;2.00;;;;;13.67;68.71;99974.00;5066722;28;45309;-64
2022/09/27 05:26:32;;;;;;;;;2.67;2.67;;;;;13.08;68.71;99872.44;5058336;28;45534;-65
2022/09/27 05:28:58;;;;;;;;;6.33;3.00;;;;;13.75;68.79;99980.28;5067478;28;45245;-67
2022/09/27 05:31:25;;;;;;;;;8.67;6.33;;;;;13.77;69.04;99983.59;5078092;28;46571;-66
2022/09/27 05:33:51;;;;;;;;;2.33;1.33;;;;;13.15;68.93;99874.38;5069073;28;45348;-66
2022/09/27 05:36:16;;;;;;;;;1.00;1.00;;;;;13.69;69.42;99974.66;5066250;28;45497;-65
2022/09/27 05:38:42;;;;;;;;;1.33;1.33;;;;;13.66;69.30;99968.84;5073990;28;45426;-64
2022/09/27 05:41:07;;;;;;;;;1.67;1.67;;;;;13.52;69.73;99959.81;5061476;27;46439;-64
2022/09/27 05:43:33;;;;;;;;;2.33;2.33;;;;;13.58;69.65;99974.25;5063692;28;45119;-65
2022/09/27 05:45:59;;;;;;;;;4.33;3.33;;;;;12.94;69.99;99875.91;5069305;28;45214;-66
2022/09/27 05:48:25;;;;;;;;;5.33;3.00;;;;;13.57;70.23;99989.44;5063314;28;45326;-65
2022/09/27 05:50:50;;;;;;;;;3.00;3.00;;;;;13.53;70.10;99974.81;5046535;28;47017;-65
2022/09/27 05:53:15;;;;;;;;;1.67;1.67;;;;;13.45;69.40;99958.88;5068034;28;46522;-65
2022/09/27 05:55:41;;;;;;;;;2.67;2.00;;;;;12.92;69.55;99861.09;5070683;28;45561;-64
2022/09/27 05:58:08;;;;;;;;;2.00;2.00;;;;;13.58;70.18;99958.22;5040269;28;45478;-64
2022/09/27 06:00:35;;;;;;;;;6.00;3.67;;;;;13.60;69.66;99973.06;5076373;28;47615;-64
2022/09/27 06:03:02;;;;;;;;;2.33;2.33;;;;;13.64;69.50;99969.03;5061980;28;45274;-65
2022/09/27 06:05:33;;;;;;;;;7.67;3.00;;;;;13.16;69.95;99873.34;5069301;28;45233;-64
2022/09/27 06:08:00;;;;;;;;;3.33;2.33;;;;;13.75;69.82;99948.22;5069751;28;45564;-68
2022/09/27 06:10:27;;;;;;;;;2.00;2.00;;;;;13.68;69.27;99956.13;5069937;28;46543;-69
2022/09/27 06:12:52;;;;;;;;;4.00;4.00;;;;;13.62;69.00;99944.34;5069707;28;45553;-65
2022/09/27 06:15:18;;;;;;;;;4.33;2.33;;;;;13.54;69.07;99925.72;5051147;28;45412;-66
2022/09/27 06:17:43;;;;;;;;;3.00;3.00;;;;;13.68;68.65;99959.63;5059010;28;45581;-65
2022/09/27 06:20:09;;;;;;;;;2.00;1.33;;;;;13.70;68.73;99956.78;5072311;28;46296;-68
2022/09/27 06:22:35;;;;;;;;;1.67;0.67;;;;;13.78;68.10;99975.38;5075220;28;45652;-70
2022/09/27 06:25:02;;;;;;;;;1.67;1.00;;;;;13.28;68.78;99887.97;5067817;28;45572;-65
2022/09/27 06:27:34;;;;;;;;;3.00;2.00;;;;;13.84;68.43;99969.31;5060384;28;45462;-65
2022/09/27 06:30:05;;;;;;;;;4.00;1.67;;;;;13.86;68.33;99971.81;5073576;28;46409;-75
2022/09/27 06:32:31;;;;;;;;;1.67;1.67;;;;;13.77;68.28;99952.34;5048401;28;45309;-67
2022/09/27 06:34:57;;;;;;;;;0.67;0.67;;;;;13.90;68.05;99957.06;5057623;28;45463;-65
2022/09/27 06:37:25;;;;;;;;;1.67;1.67;;;;;13.99;67.45;99961.28;5059811;28;45483;-65
2022/09/27 06:39:52;;;;;;;;;4.00;2.33;;;;;13.80;67.67;99929.78;5059135;28;47638;-66
2022/09/27 06:42:18;;;;;;;;;4.33;4.33;;;;;14.09;67.94;99977.88;5063665;28;45602;-67
2022/09/27 06:44:46;;;;;;;;;0.67;0.67;;;;;14.02;67.53;99960.94;5062906;28;45483;-66
2022/09/27 06:47:11;;;;;;;;;1.67;1.67;;;;;14.11;67.76;99967.00;5064880;28;45485;-68
2022/09/27 06:49:36;;;;;;;;;3.33;1.33;;;;;14.06;67.75;99953.38;5055478;28;47785;-66
2022/09/27 06:52:02;;;;;;;;;1.33;1.33;;;;;14.09;67.61;99961.84;5056688;28;46026;-72
2022/09/27 06:54:27;;;;;;;;;4.33;1.33;;;;;14.06;67.46;99962.22;5061925;28;45889;-65
2022/09/27 06:56:53;;;;;;;;;2.33;2.33;;;;;14.05;67.31;99960.56;5065232;28;45475;-65
2022/09/27 07:02:02;;;;;;;;;3.00;1.00;;;;;13.82;67.43;99906.41;5057137;28;45369;-67
2022/09/27 07:04:28;;;;;;;;;2.67;2.67;;;;;14.04;67.98;99942.88;5048393;28;45465;-65
2022/09/27 07:06:54;;;;;;;;;2.67;2.67;;;;;14.24;67.16;99981.38;5036277;28;45280;-68
2022/09/27 07:09:19;;;;;;;;;1.00;1.00;;;;;14.05;66.41;99936.50;5035705;28;45607;-66
2022/09/27 07:11:44;;;;;;;;;2.33;2.00;;;;;13.85;66.54;99906.03;5036064;28;45205;-66
2022/09/27 07:14:10;;;;;;;;;2.67;0.67;;;;;14.23;66.39;99968.19;5036501;28;45699;-64
2022/09/27 07:16:36;;;;;;;;;4.00;1.00;;;;;14.09;66.24;99948.47;5036692;28;45227;-65
2022/09/27 07:19:02;;;;;;;;;3.67;0.67;;;;;14.35;66.26;99982.72;5036261;28;45564;-65
2022/09/27 07:21:27;;;;;;;;;1.67;1.67;;;;;14.34;66.30;99983.75;5042217;28;45454;-65
2022/09/27 07:23:53;;;;;;;;;4.00;4.00;;;;;14.45;65.84;99993.19;5036161;28;50944;-66
2022/09/27 07:26:18;;;;;;;;;4.00;3.00;;;;;14.41;65.71;99987.31;5035950;28;45434;-65
2022/09/27 07:28:44;;;;;;;;;5.67;4.67;;;;;14.55;66.62;99999.06;5046644;28;47380;-73
2022/09/27 07:31:11;;;;;;;;;1.67;1.33;;;;;14.55;65.76;100007.91;5033855;28;45496;-66
2022/09/27 07:33:40;;;;;;;;;3.00;2.00;;;;;14.49;65.68;99984.59;5032488;28;45604;-66
2022/09/27 07:36:07;;;;;;;;;0.67;0.67;;;;;14.61;65.65;100025.03;5060393;28;45466;-66
2022/09/27 07:38:32;;;;;;;;;3.67;2.67;;;;;14.71;64.95;100014.88;5035590;28;47049;-69
2022/09/27 07:40:58;;;;;;;;;5.00;5.00;;;;;14.76;65.06;100011.63;5027761;28;45443;-65
2022/09/27 07:43:23;;;;;;;;;4.67;1.67;;;;;14.82;64.93;100017.09;5040699;28;45423;-67
2022/09/27 07:45:48;;;;;;;;;5.67;1.33;;;;;14.81;64.31;100009.22;5035522;28;45335;-67
2022/09/27 07:48:15;;;;;;;;;3.00;3.00;;;;;14.90;65.25;100011.59;5035796;28;46312;-66
2022/09/27 07:50:41;;;;;;;;;2.67;1.33;;;;;15.02;64.14;100008.44;5036092;28;45438;-67
2022/09/27 07:53:06;;;;;;;;;3.00;2.00;;;;;15.14;64.38;100021.09;5036795;28;45233;-67
2022/09/27 07:55:32;;;;;;;;;1.00;1.00;;;;;15.04;63.71;99988.47;5036451;28;45522;-68
2022/09/27 07:58:06;;;;;;;;;2.67;1.67;;;;;15.38;63.46;100019.88;5035331;28;45574;-66
2022/09/27 08:00:32;;;;;;;;;2.33;1.00;;;;;15.67;62.27;100031.50;5041799;28;45526;-67
2022/09/27 08:02:57;;;;;;;;;2.00;2.00;;;;;15.94;61.90;100033.34;5035630;28;45255;-68
2022/09/27 08:05:22;;;;;;;;;3.33;1.00;;;;;15.96;60.38;99980.34;5036176;28;45489;-68
2022/09/27 08:07:53;;;;;;;;;2.00;2.00;;;;;16.57;60.36;100044.81;5034151;28;46847;-66
2022/09/27 08:10:19;;;;;;;;;2.67;1.33;;;;;16.68;59.19;100036.25;5034802;28;45566;-66
2022/09/27 08:12:45;;;;;;;;;2.00;1.00;;;;;16.72;58.56;100053.59;5034786;28;45576;-66
2022/09/27 08:15:10;;;;;;;;;4.00;3.00;;;;;16.58;58.29;100043.78;5026657;28;45500;-67
2022/09/27 08:17:35;;;;;;;;;5.33;2.33;;;;;16.61;58.30;100046.06;5034719;28;46035;-67
2022/09/27 08:20:05;;;;;;;;;1.67;1.67;;;;;16.60;58.24;100044.41;5024006;28;45392;-67
2022/09/27 08:22:30;;;;;;;;;1.00;0.00;;;;;16.47;59.08;100030.97;5035456;28;45336;-65
2022/09/27 08:24:56;;;;;;;;;4.33;3.33;;;;;16.45;58.78;100049.13;5039933;28;45562;-67
2022/09/27 08:27:21;;;;;;;;;6.33;3.00;;;;;16.31;59.05;100023.25;5046414;28;45676;-67
2022/09/27 08:29:46;;;;;;;;;4.00;2.00;;;;;16.36;59.36;100036.88;5049336;28;45850;-69
2022/09/27 08:32:12;;;;;;;;;3.00;2.00;;;;;16.50;59.06;100059.25;5038930;28;45142;-66
2022/09/27 08:34:38;;;;;;;;;3.67;2.33;;;;;16.26;59.08;100020.34;5039962;28;45551;-67
2022/09/27 08:37:04;;;;;;;;;2.33;2.00;;;;;15.82;58.89;99943.78;5038640;28;45642;-68
2022/09/27 08:39:30;;;;;;;;;2.00;2.00;;;;;16.40;58.38;100047.00;5046936;28;45487;-67
2022/09/27 08:42:24;;;;;;;;;3.33;3.00;;;;;16.57;58.00;100068.97;5028345;28;45432;-68
2022/09/27 08:45:11;;;;;;;;;2.00;2.00;;;;;16.58;58.33;100073.31;5034450;28;45437;-67
2022/09/27 08:47:45;;;;;;;;;2.00;2.00;;;;;16.58;58.16;100077.84;5030206;28;45724;-68
2022/09/27 08:50:35;;;;;;;;;5.67;4.00;;;;;16.52;58.21;100079.47;5052442;28;45495;-69
2022/09/27 08:53:12;;;;;;;;;2.00;1.00;;;;;16.55;58.35;100084.44;5040441;28;45269;-68
2022/09/27 08:55:42;;;;;;;;;2.67;2.33;;;;;16.55;58.05;100076.41;5018619;28;45392;-67
2022/09/27 08:58:22;;;;;;;;;2.00;2.00;;;;;16.53;57.97;100080.31;5034549;28;46230;-67
2022/09/27 09:00:50;;;;;;;;;2.00;1.00;;;;;16.42;57.64;100060.25;5040000;28;45285;-67
2022/09/27 09:03:18;;;;;;;;;8.67;6.00;;;;;16.58;57.13;100067.13;5042668;28;45516;-67
2022/09/27 09:06:01;;;;;;;;;3.00;1.00;;;;;16.42;57.87;100060.25;5037244;28;45658;-66
2022/09/27 09:08:32;;;;;;;;;2.00;1.00;;;;;16.51;58.35;100077.84;5037297;28;46433;-67
2022/09/27 09:14:27;;;;;;;;;6.67;2.33;;;;;16.47;58.32;100071.22;5037578;28;45522;-68
2022/09/27 09:17:14;;;;;;;;;1.00;1.00;;;;;16.48;57.70;100078.22;5038113;28;46383;-66
2022/09/27 09:20:01;;;;;;;;;3.00;2.67;;;;;16.54;57.75;100076.59;5036837;28;45658;-66
2022/09/27 09:22:55;;;;;;;;;2.67;1.00;;;;;16.60;57.86;100073.94;5037280;28;45273;-67
2022/09/27 09:25:30;;;;;;;;;3.00;3.00;;;;;16.59;57.93;100052.66;5043685;28;45550;-68
2022/09/27 09:28:13;;;;;;;;;1.00;1.00;;;;;16.70;57.76;100076.31;5036232;28;45551;-72
2022/09/27 09:30:38;;;;;;;;;3.00;1.00;;;;;16.82;57.35;100066.66;5037746;28;45659;-67
2022/09/27 09:33:22;;;;;;;;;3.67;1.00;;;;;16.95;57.12;100057.81;5044421;28;45324;-67
2022/09/27 09:35:50;;;;;;;;;1.00;1.00;;;;;17.11;56.33;100040.50;5038724;28;45546;-67
2022/09/27 09:38:34;;;;;;;;;2.67;1.00;;;;;17.27;55.82;100040.13;5042152;28;45444;-66
2022/09/27 09:41:07;;;;;;;;;1.33;1.33;;;;;17.71;54.76;100050.28;5036303;28;45731;-69
2022/09/27 09:43:42;;;;;;;;;3.00;2.67;;;;;17.89;53.78;100046.97;5037588;28;45434;-79
2022/09/27 09:46:50;;;;;;;;;2.00;2.00;;;;;18.02;53.29;100038.03;5039524;28;45289;-65
2022/09/27 09:49:22;;;;;;;;;0.33;0.33;;;;;18.22;52.83;100022.72;5024137;28;45643;-67
2022/09/27 09:51:57;;;;;;;;;1.00;1.00;;;;;18.32;52.26;100001.56;5033317;28;46728;-66
2022/09/27 09:54:40;;;;;;;;;1.67;1.33;;;;;18.82;51.71;100028.69;5033488;28;45317;-65
2022/09/27 09:57:14;;;;;;;;;1.00;1.00;;;;;19.04;50.42;100010.38;5033249;28;45604;-76
2022/09/27 09:59:57;;;;;;;;;2.00;1.00;;;;;19.28;49.33;99989.88;5036772;28;45412;-67
2022/09/27 10:02:30;;;;;;;;;0.33;0.00;;;;;19.05;48.10;99921.25;5036917;28;47649;-66
2022/09/27 10:04:56;;;;;;;;;0.00;0.00;;;;;19.10;48.06;99942.97;5037777;28;45503;-66
2022/09/27 10:07:23;;;;;;;;;1.33;1.33;;;;;19.31;47.94;99949.84;5037126;28;45499;-67
2022/09/27 10:09:52;;;;;;;;;2.67;2.67;;;;;19.66;47.79;100004.13;5029592;28;45499;-67
2022/09/27 10:12:18;;;;;;;;;2.00;1.00;;;;;19.78;45.89;99993.41;5041667;28;46976;-66
2022/09/27 10:14:48;;;;;;;;;1.00;1.00;;;;;19.81;46.34;100000.22;5035861;28;45573;-67
2022/09/27 10:17:18;;;;;;;;;1.33;1.33;;;;;19.59;46.23;99970.97;5033924;28;45564;-67
2022/09/27 10:19:47;;;;;;;;;1.33;1.00;;;;;19.65;46.08;99990.84;5036333;28;45576;-67
2022/09/27 10:22:21;;;;;;;;;1.00;1.00;;;;;19.56;46.50;99992.97;5034664;28;47545;-67
2022/09/27 10:24:57;;;;;;;;;2.67;1.00;;;;;19.60;46.27;99991.50;5027558;28;45521;-68
2022/09/27 10:27:26;;;;;;;;;1.00;1.00;;;;;19.58;46.41;99998.97;5037797;28;45242;-67
2022/09/27 10:29:58;;;;;;;;;1.00;0.00;;;;;19.54;46.06;99978.06;5038015;28;45376;-68
2022/09/27 10:32:30;;;;;;;;;1.67;1.67;;;;;19.49;46.63;99970.63;5036473;28;45748;-68
2022/09/27 10:35:20;;;;;;;;;2.33;2.33;;;;;19.51;47.00;99990.09;5037638;28;45301;-68
2022/09/27 10:37:45;;;;;;;;;1.00;1.00;;;;;19.35;47.53;99982.56;5037736;28;45533;-67
2022/09/27 10:40:29;;;;;;;;;1.00;1.00;;;;;19.21;48.64;99994.47;5037480;28;45395;-71
2022/09/27 10:42:54;;;;;;;;;5.00;4.00;;;;;19.03;49.65;100006.84;5036121;28;46239;-68
2022/09/27 10:45:27;;;;;;;;;3.00;2.00;;;;;18.80;50.35;100010.06;5037224;28;45304;-68
2022/09/27 10:47:53;;;;;;;;;1.33;1.33;;;;;18.59;51.88;100007.66;5037443;28;45259;-68
2022/09/27 10:50:27;;;;;;;;;2.00;2.00;;;;;18.36;53.37;100018.94;5037201;28;45416;-67
2022/09/27 10:53:17;;;;;;;;;4.00;2.00;;;;;18.27;55.10;100014.84;5037131;27;45688;-66
2022/09/27 10:55:47;;;;;;;;;4.33;1.67;;;;;18.12;55.25;100023.16;5027440;28;46365;-74
2022/09/27 10:58:27;;;;;;;;;3.00;3.00;;;;;17.57;55.53;99949.97;5042545;28;45443;-72
2022/09/27 11:01:02;;;;;;;;;1.00;1.00;;;;;17.69;56.64;100003.97;5031355;28;45565;-70
2022/09/27 11:03:35;;;;;;;;;1.67;1.00;;;;;17.53;56.88;100004.38;5039959;28;45738;-68
2022/09/27 11:06:28;;;;;;;;;2.00;2.00;;;;;17.33;57.70;99980.19;5036929;28;45411;-69
2022/09/27 11:09:08;;;;;;;;;1.33;1.33;;;;;17.39;57.66;100010.75;5042124;28;45482;-69
2022/09/27 11:11:33;;;;;;;;;2.67;2.00;;;;;17.33;58.82;100009.72;5034643;28;45610;-70
2022/09/27 11:14:06;;;;;;;;;2.33;1.00;;;;;17.09;58.37;100003.09;5037144;28;46604;-70
2022/09/27 11:16:59;;;;;;;;;2.00;2.00;;;;;17.13;58.29;100006.19;5035543;28;45464;-67
2022/09/27 11:19:34;;;;;;;;;1.00;1.00;;;;;17.12;58.20;99994.63;5036103;28;45482;-67
2022/09/27 11:22:24;;;;;;;;;5.00;5.00;;;;;17.30;57.86;99997.53;5038481;28;45754;-67
2022/09/27 11:25:04;;;;;;;;;3.00;2.67;;;;;17.19;57.38;99975.81;5036032;28;46601;-66
2022/09/27 11:27:48;;;;;;;;;2.33;1.00;;;;;17.38;56.99;99998.34;5036542;28;45634;-66
2022/09/27 11:30:20;;;;;;;;;6.00;5.00;;;;;17.42;57.16;100004.97;5029408;28;45328;-66
2022/09/27 11:32:54;;;;;;;;;2.33;2.33;;;;;17.53;57.21;100001.69;5046575;28;45514;-67
2022/09/27 11:35:50;;;;;;;;;2.00;2.00;;;;;17.54;56.38;100014.06;5036497;28;46454;-66
2022/09/27 11:38:17;;;;;;;;;7.33;7.33;;;;;17.46;56.10;100009.75;5036533;28;45503;-66
2022/09/27 11:40:59;;;;;;;;;1.67;1.33;;;;;17.43;56.28;100006.66;5036612;28;45563;-66
2022/09/27 11:43:32;;;;;;;;;1.00;1.00;;;;;17.34;56.46;100004.16;5044913;28;45341;-67
2022/09/27 11:46:05;;;;;;;;;3.00;3.00;;;;;17.14;57.09;99987.19;5036520;28;46756;-66
2022/09/27 11:48:53;;;;;;;;;1.33;1.33;;;;;17.26;57.12;100001.69;5036269;28;45421;-67
2022/09/27 11:51:30;;;;;;;;;3.00;1.00;;;;;17.41;57.31;99997.94;5027412;28;45367;-66
2022/09/27 11:53:55;;;;;;;;;1.33;1.33;;;;;17.50;56.42;99988.66;5035123;28;45474;-74
2022/09/27 11:56:51;;;;;;;;;3.00;1.67;;;;;17.60;56.62;99981.00;5036513;28;46289;-67
2022/09/27 11:59:30;;;;;;;;;1.33;1.33;;;;;17.58;56.17;99973.13;5039731;28;45333;-67